Terminal Aerodrome Forecast
Issued by NWS

Home | Current Version | Previous Version | Graphics & Text | Print | Product List | Glossary On
Versions: 1 2 3 4 5 6 7 8 9 10 11 12 13 14 15 16
000
FTUS43 KABR 052332
TAFMBG
TAF
KMBG 052332Z 0600/0624 15013G20KT P6SM FEW060 OVC150
     FM060900 12015KT P6SM -SHRA SCT015 OVC030
     FM061500 16017G24KT 3SM SHRA BR SCT007 BKN015 OVC025=

USA.gov is the U.S. government's official web portal to all federal, state and local government web resources and services.